Time;durP1;ratioP1;P1;durP2;ratioP2;P2;SDS_P1;SDS_P2;PMS_P1;PMS_P2;Temp;Humidity;BMP_temperature;BMP_pressure;BME280_temperature;BME280_humidity;BME280_pressure;Samples;Min_cycle;Max_cycle;Signal;HPM_P1;HPM_P2
2023/08/12 00:00:48;;;;;;;11.53;10.73;;;;;;;16.46;86.41;93429.94;5084538;28;20193;-77
2023/08/12 00:03:14;;;;;;;11.07;10.37;;;;;;;16.46;86.55;93429.94;5090549;28;20250;-76
2023/08/12 00:05:40;;;;;;;11.13;10.53;;;;;;;16.53;86.53;93424.25;5090172;28;20236;-76
2023/08/12 00:08:06;;;;;;;10.73;9.93;;;;;;;16.47;86.97;93425.44;5090264;28;20215;-76
2023/08/12 00:10:31;;;;;;;11.10;10.40;;;;;;;16.24;87.31;93411.34;5091680;28;20203;-76
2023/08/12 00:12:57;;;;;;;10.87;10.27;;;;;;;16.23;87.25;93424.81;5102957;28;20217;-77
2023/08/12 00:15:22;;;;;;;10.83;10.23;;;;;;;16.24;86.71;93413.97;5092660;28;20185;-75
2023/08/12 00:17:48;;;;;;;10.77;10.07;;;;;;;16.20;86.97;93420.94;5077272;28;20267;-76
2023/08/12 00:20:13;;;;;;;11.13;10.53;;;;;;;16.10;87.19;93410.56;5089940;28;20773;-76
2023/08/12 00:22:40;;;;;;;11.00;10.23;;;;;;;16.21;87.28;93414.56;5085326;28;20232;-76
2023/08/12 00:25:06;;;;;;;10.27;9.40;;;;;;;16.05;87.06;93400.13;5081340;28;20201;-80
2023/08/12 00:27:32;;;;;;;10.87;10.07;;;;;;;16.01;87.84;93407.84;5081766;28;20242;-81
2023/08/12 00:29:57;;;;;;;10.10;9.60;;;;;;;16.04;88.18;93411.75;5081952;28;20200;-76
2023/08/12 00:32:23;;;;;;;9.77;9.17;;;;;;;15.96;88.64;93400.03;5071564;28;20244;-73
2023/08/12 00:34:48;;;;;;;11.30;10.40;;;;;;;16.06;88.76;93420.13;5061000;28;20220;-72
2023/08/12 00:37:14;;;;;;;10.73;10.03;;;;;;;15.97;88.75;93419.22;5068108;28;20221;-73
2023/08/12 00:39:39;;;;;;;10.47;9.87;;;;;;;15.85;88.71;93411.81;5056320;28;20259;-78
2023/08/12 00:42:04;;;;;;;10.43;9.83;;;;;;;15.92;89.57;93414.84;5069251;28;20252;-76
2023/08/12 00:44:30;;;;;;;10.10;9.53;;;;;;;16.03;88.90;93410.94;5063985;28;20194;-74
2023/08/12 00:46:55;;;;;;;10.07;9.47;;;;;;;15.99;89.20;93409.19;5069343;28;20224;-76
2023/08/12 00:49:25;;;;;;;10.90;10.20;;;;;;;16.07;88.50;93411.16;5084603;28;20190;-71
2023/08/12 00:51:52;;;;;;;10.70;10.10;;;;;;;15.91;88.99;93396.69;5080853;28;20236;-75
2023/08/12 00:54:20;;;;;;;10.67;10.07;;;;;;;15.90;89.20;93414.38;5068107;28;20215;-73
2023/08/12 00:56:46;;;;;;;10.50;9.77;;;;;;;16.04;88.62;93409.91;5058122;28;20228;-75
2023/08/12 00:59:11;;;;;;;11.10;10.47;;;;;;;16.04;89.33;93414.38;5084304;28;20437;-74
2023/08/12 01:01:43;;;;;;;10.97;10.30;;;;;;;15.96;89.98;93410.56;5075087;28;20197;-73
2023/08/12 01:04:09;;;;;;;11.70;10.80;;;;;;;15.92;89.16;93409.56;5079119;28;20186;-72
2023/08/12 01:06:35;;;;;;;10.67;9.97;;;;;;;15.82;89.19;93398.44;5078512;28;20220;-74
2023/08/12 01:09:05;;;;;;;10.30;9.57;;;;;;;15.74;89.37;93399.09;5069567;28;20198;-78
2023/08/12 01:11:42;;;;;;;10.50;9.90;;;;;;;15.77;88.34;93401.16;5078726;28;20184;-77
2023/08/12 01:14:27;;;;;;;10.63;10.03;;;;;;;15.80;88.57;93400.56;5062285;28;20321;-81
2023/08/12 01:16:59;;;;;;;11.57;10.68;;;;;;;15.73;89.77;93397.56;5061420;28;20549;-75
2023/08/12 01:19:31;;;;;;;10.33;9.73;;;;;;;15.91;89.23;93392.22;5056452;28;20252;-74
2023/08/12 01:22:00;;;;;;;11.50;10.60;;;;;;;16.05;88.88;93392.22;5064866;28;20228;-73
2023/08/12 01:24:26;;;;;;;11.13;10.43;;;;;;;16.04;90.30;93395.94;5061763;28;20212;-76
2023/08/12 01:26:51;;;;;;;10.23;9.53;;;;;;;16.08;88.69;93389.00;5060390;28;20276;-74
2023/08/12 01:29:17;;;;;;;11.20;10.60;;;;;;;16.00;88.20;93389.66;5064762;28;20281;-72
2023/08/12 01:31:51;;;;;;;10.87;10.27;;;;;;;16.12;87.26;93403.16;5069424;28;20293;-73
2023/08/12 01:34:30;;;;;;;10.93;10.33;;;;;;;16.12;88.08;93382.09;5087552;28;20196;-72
2023/08/12 01:36:58;;;;;;;10.90;10.27;;;;;;;16.17;86.79;93389.91;5086693;28;20216;-71
2023/08/12 01:39:27;;;;;;;10.20;9.40;;;;;;;16.16;87.35;93390.94;5089718;28;20211;-70
2023/08/12 01:41:54;;;;;;;11.37;10.57;;;;;;;16.00;88.07;93382.56;5089275;28;20235;-75
2023/08/12 01:44:19;;;;;;;11.77;11.07;;;;;;;15.99;87.35;93388.13;5082475;28;20204;-75
2023/08/12 01:46:45;;;;;;;10.43;9.83;;;;;;;15.83;87.62;93378.94;5088093;28;20921;-75
2023/08/12 01:49:10;;;;;;;11.63;10.93;;;;;;;15.90;88.35;93389.88;5087648;28;20183;-75
2023/08/12 01:51:36;;;;;;;11.60;10.87;;;;;;;15.84;88.78;93391.81;5087501;28;20185;-76
2023/08/12 01:54:01;;;;;;;11.53;10.87;;;;;;;15.86;89.02;93391.50;5086887;28;20251;-75
2023/08/12 01:56:26;;;;;;;11.80;11.00;;;;;;;15.74;88.99;93389.38;5087090;28;20177;-75
2023/08/12 01:58:52;;;;;;;11.83;10.97;;;;;;;15.73;88.86;93389.66;5085940;28;20204;-75
2023/08/12 02:01:17;;;;;;;10.73;10.07;;;;;;;15.69;88.95;93389.44;5087499;28;20185;-75
2023/08/12 02:03:42;;;;;;;11.80;11.00;;;;;;;15.67;88.59;93388.19;5091640;28;20216;-75
2023/08/12 02:06:08;;;;;;;11.43;10.37;;;;;;;15.70;88.43;93385.75;5095944;28;20178;-75
2023/08/12 02:08:33;;;;;;;11.77;11.03;;;;;;;15.72;88.45;93393.38;5068986;28;20252;-76
2023/08/12 02:10:59;;;;;;;11.70;10.90;;;;;;;15.58;89.15;93392.56;5068206;28;20653;-75
2023/08/12 02:13:24;;;;;;;9.47;8.97;;;;;;;15.56;87.42;93394.69;5067283;28;20947;-75
2023/08/12 02:15:49;;;;;;;11.20;10.50;;;;;;;15.54;88.00;93381.03;5056547;28;20207;-75
2023/08/12 02:18:15;;;;;;;10.57;9.87;;;;;;;15.54;88.37;93384.47;5082937;28;20243;-75
2023/08/12 02:20:41;;;;;;;10.67;10.07;;;;;;;15.72;88.15;93396.00;5088717;28;20245;-75
2023/08/12 02:23:06;;;;;;;11.40;10.70;;;;;;;15.46;89.14;93371.16;5088191;28;20224;-75
2023/08/12 02:25:32;;;;;;;11.97;10.63;;;;;;;15.57;88.67;93380.47;5088963;28;20189;-75
2023/08/12 02:27:57;;;;;;;11.20;10.40;;;;;;;15.40;88.26;93370.50;5087016;28;20225;-75
2023/08/12 02:30:23;;;;;;;10.53;9.93;;;;;;;15.61;88.59;93392.00;5090902;28;20236;-75
2023/08/12 02:32:49;;;;;;;10.70;9.97;;;;;;;15.50;88.27;93385.34;5092016;28;20276;-75
2023/08/12 02:35:15;;;;;;;10.40;9.70;;;;;;;15.48;88.56;93379.56;5091895;28;20176;-75
2023/08/12 02:37:40;;;;;;;10.77;9.93;;;;;;;15.62;88.43;93396.16;5090590;28;20255;-75
2023/08/12 02:40:06;;;;;;;11.57;10.57;;;;;;;15.53;88.41;93384.75;5092340;28;20212;-75
2023/08/12 02:42:32;;;;;;;10.80;10.07;;;;;;;15.43;89.23;93382.28;5091872;28;20221;-76
2023/08/12 02:44:57;;;;;;;10.30;9.70;;;;;;;15.58;89.27;93397.84;5091148;28;20193;-75
2023/08/12 02:47:22;;;;;;;10.80;10.10;;;;;;;15.39;88.57;93399.72;5091338;28;20263;-75
2023/08/12 02:49:48;;;;;;;10.20;9.53;;;;;;;15.31;88.66;93390.63;5091959;28;20257;-75
2023/08/12 02:52:14;;;;;;;11.00;10.27;;;;;;;15.44;89.17;93400.41;5091571;28;20228;-75
2023/08/12 02:54:39;;;;;;;10.80;10.20;;;;;;;15.43;88.50;93404.13;5084852;28;20177;-75
2023/08/12 02:57:05;;;;;;;11.30;10.60;;;;;;;15.39;87.54;93392.59;5091398;28;20275;-75
2023/08/12 02:59:30;;;;;;;11.20;10.50;;;;;;;15.40;89.51;93396.00;5091050;28;20213;-75
2023/08/12 03:01:55;;;;;;;10.90;10.23;;;;;;;15.44;89.38;93403.03;5100309;28;20220;-74
2023/08/12 03:04:22;;;;;;;11.27;10.63;;;;;;;15.39;90.10;93399.72;5091895;28;20181;-75
2023/08/12 03:06:47;;;;;;;11.20;10.50;;;;;;;15.35;90.97;93394.22;5087229;28;20224;-75
2023/08/12 03:09:13;;;;;;;11.30;10.40;;;;;;;15.38;91.54;93404.19;5071552;28;20182;-76
2023/08/12 03:11:38;;;;;;;11.13;10.27;;;;;;;15.24;91.39;93403.34;5071471;28;20204;-75
2023/08/12 03:14:04;;;;;;;11.03;10.37;;;;;;;15.15;92.83;93406.91;5070054;28;20169;-75
2023/08/12 03:16:29;;;;;;;10.03;9.43;;;;;;;15.26;91.87;93410.94;5072199;28;20248;-75
2023/08/12 03:18:55;;;;;;;11.03;10.43;;;;;;;15.19;93.07;93405.28;5091245;28;20200;-75
2023/08/12 03:21:20;;;;;;;11.13;10.50;;;;;;;14.93;93.49;93396.19;5091181;28;20287;-75
2023/08/12 03:23:45;;;;;;;11.67;10.97;;;;;;;14.84;94.66;93393.44;5079641;28;20169;-75
2023/08/12 03:26:11;;;;;;;12.00;11.00;;;;;;;14.89;95.66;93405.72;5091193;28;20200;-75
2023/08/12 03:28:36;;;;;;;11.10;10.50;;;;;;;14.88;95.40;93389.16;5089793;28;20216;-75
2023/08/12 03:31:02;;;;;;;11.60;10.90;;;;;;;15.10;94.14;93415.66;5084745;28;20176;-75
2023/08/12 03:33:27;;;;;;;11.37;10.37;;;;;;;15.04;94.19;93410.75;5090795;28;20278;-75
2023/08/12 03:35:53;;;;;;;12.43;11.63;;;;;;;14.92;94.66;93411.19;5078744;28;20196;-75
2023/08/12 03:38:18;;;;;;;11.43;10.63;;;;;;;14.91;94.49;93416.75;5088795;28;20278;-75
2023/08/12 03:40:43;;;;;;;11.27;10.63;;;;;;;14.88;94.68;93412.81;5090243;28;20240;-75
2023/08/12 03:43:09;;;;;;;12.73;11.47;;;;;;;14.90;95.48;93423.06;5090392;28;20221;-75
2023/08/12 03:45:42;;;;;;;10.67;9.97;;;;;;;15.05;95.41;93420.22;5091072;28;20196;-75
2023/08/12 03:48:07;;;;;;;12.70;11.17;;;;;;;14.94;95.94;93419.56;5090359;28;20208;-75
2023/08/12 03:50:37;;;;;;;11.93;11.23;;;;;;;14.96;95.86;93417.44;5090848;28;20191;-75
2023/08/12 03:53:02;;;;;;;12.03;11.13;;;;;;;14.93;95.82;93420.63;5090543;28;20227;-75
2023/08/12 03:55:33;;;;;;;12.00;10.93;;;;;;;14.94;96.04;93429.31;5090722;28;20240;-75
2023/08/12 03:58:02;;;;;;;11.30;10.60;;;;;;;14.93;94.80;93425.91;5089440;28;20212;-75
2023/08/12 04:00:28;;;;;;;11.10;10.37;;;;;;;15.07;95.12;93412.81;5090281;28;20227;-75
2023/08/12 04:02:53;;;;;;;10.93;10.23;;;;;;;15.36;94.83;93421.31;5090439;28;20217;-75
2023/08/12 04:05:19;;;;;;;11.43;10.53;;;;;;;15.35;94.78;93414.47;5090446;28;20664;-76
2023/08/12 04:07:44;;;;;;;12.40;11.53;;;;;;;15.38;96.50;93425.25;5090038;28;20225;-75
2023/08/12 04:10:10;;;;;;;10.77;10.17;;;;;;;15.54;94.98;93423.16;5089191;28;20191;-75
2023/08/12 04:12:35;;;;;;;12.60;11.70;;;;;;;15.56;94.91;93411.28;5089362;28;20220;-75
2023/08/12 04:15:04;;;;;;;11.47;10.77;;;;;;;15.70;94.83;93427.09;5090302;28;20248;-75
2023/08/12 04:17:29;;;;;;;11.70;11.00;;;;;;;15.71;95.15;93426.81;5089908;28;20220;-75
2023/08/12 04:19:55;;;;;;;12.37;11.57;;;;;;;15.78;91.23;93424.56;5090089;28;20959;-75
2023/08/12 04:22:20;;;;;;;12.37;11.47;;;;;;;15.83;91.40;93410.53;5089869;28;20225;-75
2023/08/12 04:24:45;;;;;;;11.43;10.63;;;;;;;16.00;90.13;93431.81;5090183;28;20173;-75
2023/08/12 04:27:11;;;;;;;11.97;10.90;;;;;;;16.11;89.29;93422.66;5088424;28;20222;-75
2023/08/12 04:29:36;;;;;;;11.30;10.23;;;;;;;16.27;89.11;93434.47;5086662;28;20196;-75
2023/08/12 04:32:01;;;;;;;11.10;10.17;;;;;;;16.36;86.74;93430.06;5089685;28;20224;-75
2023/08/12 04:34:27;;;;;;;10.53;9.83;;;;;;;16.43;87.65;93435.75;5090036;28;20236;-75
2023/08/12 04:36:52;;;;;;;10.27;9.40;;;;;;;16.48;86.55;93427.78;5089525;28;20234;-75
2023/08/12 04:39:18;;;;;;;10.13;9.53;;;;;;;16.61;84.03;93424.34;5089688;28;20209;-75
2023/08/12 04:41:43;;;;;;;10.80;10.20;;;;;;;16.64;82.65;93426.38;5089548;28;20228;-75
2023/08/12 04:44:08;;;;;;;10.17;9.57;;;;;;;16.98;79.91;93439.88;5084607;28;20209;-75
2023/08/12 04:46:34;;;;;;;11.10;10.40;;;;;;;16.85;81.39;93424.09;5089287;28;20197;-75
2023/08/12 04:48:59;;;;;;;10.63;9.93;;;;;;;17.10;80.42;93442.81;5089768;28;20184;-75
2023/08/12 04:51:25;;;;;;;11.77;10.90;;;;;;;17.08;81.26;93439.69;5089249;28;20184;-75
2023/08/12 04:53:50;;;;;;;10.43;9.60;;;;;;;17.08;79.51;93447.59;5089805;28;20180;-75
2023/08/12 04:56:16;;;;;;;10.07;9.57;;;;;;;16.74;78.48;93417.47;5089065;28;20185;-75
2023/08/12 04:58:41;;;;;;;9.47;8.87;;;;;;;16.98;77.03;93425.94;5089827;28;20288;-75
2023/08/12 05:01:07;;;;;;;10.67;9.97;;;;;;;17.16;77.45;93436.34;5089204;28;20173;-75
2023/08/12 05:03:33;;;;;;;10.23;9.57;;;;;;;17.35;73.85;93442.22;5070679;28;20209;-75
2023/08/12 05:05:58;;;;;;;9.53;9.03;;;;;;;17.46;74.56;93440.16;5069296;28;20212;-75
2023/08/12 05:08:23;;;;;;;9.50;8.97;;;;;;;17.81;73.82;93443.78;5068799;28;20260;-75
2023/08/12 05:10:49;;;;;;;9.40;8.80;;;;;;;17.86;72.66;93439.19;5069162;28;20189;-76
2023/08/12 05:13:15;;;;;;;11.10;10.00;;;;;;;17.76;71.84;93446.59;5081962;28;20258;-75
2023/08/12 05:15:41;;;;;;;11.17;10.43;;;;;;;17.78;73.15;93454.97;5089201;28;20177;-75
2023/08/12 05:18:06;;;;;;;9.83;9.23;;;;;;;18.14;71.96;93442.44;5087748;28;20222;-75
2023/08/12 05:20:32;;;;;;;10.90;9.10;;;;;;;18.12;73.87;93457.78;5088858;28;20209;-75
2023/08/12 05:22:59;;;;;;;9.40;8.90;;;;;;;18.41;70.71;93456.25;5088784;28;20240;-75
2023/08/12 05:25:24;;;;;;;9.80;9.10;;;;;;;18.62;70.59;93457.28;5089098;28;20544;-75
2023/08/12 05:27:50;;;;;;;10.27;9.47;;;;;;;18.46;69.97;93444.78;5087985;28;20226;-75
2023/08/12 05:30:15;;;;;;;9.70;9.20;;;;;;;18.80;68.79;93456.22;5076050;28;20173;-75
2023/08/12 05:32:41;;;;;;;10.73;9.93;;;;;;;18.98;69.09;93464.97;5080559;28;20249;-75
2023/08/12 05:35:07;;;;;;;9.73;9.03;;;;;;;18.59;69.41;93470.31;5088952;28;20187;-75
2023/08/12 05:37:32;;;;;;;9.30;8.70;;;;;;;19.18;67.47;93461.75;5088399;28;20222;-75
2023/08/12 05:39:57;;;;;;;9.97;9.37;;;;;;;19.34;67.56;93465.53;5088689;28;20227;-75
2023/08/12 05:42:23;;;;;;;9.67;9.17;;;;;;;18.82;69.16;93467.28;5088599;28;20230;-75
2023/08/12 05:44:48;;;;;;;9.93;9.23;;;;;;;19.20;68.38;93467.50;5088699;28;21025;-75
2023/08/12 05:47:13;;;;;;;9.53;8.80;;;;;;;19.64;66.94;93464.59;5087752;28;20227;-75
2023/08/12 05:49:39;;;;;;;9.63;9.03;;;;;;;19.57;67.06;93464.28;5088620;28;20197;-75
2023/08/12 05:52:05;;;;;;;9.73;9.07;;;;;;;19.53;67.17;93462.56;5088483;28;20249;-76
2023/08/12 05:54:30;;;;;;;9.33;8.57;;;;;;;19.09;69.20;93468.91;5089565;28;20208;-75
2023/08/12 05:56:55;;;;;;;9.73;9.13;;;;;;;18.93;70.52;93446.59;5087518;28;20255;-75
2023/08/12 05:59:21;;;;;;;10.27;9.30;;;;;;;19.52;67.63;93464.44;5088709;28;20253;-76
2023/08/12 06:01:46;;;;;;;10.73;9.73;;;;;;;19.61;67.62;93461.78;5088409;28;20222;-75
2023/08/12 06:04:12;;;;;;;10.00;9.37;;;;;;;20.80;64.02;93469.44;5090655;28;20187;-75
2023/08/12 06:06:37;;;;;;;10.60;9.68;;;;;;;22.62;55.91;93469.22;5089978;28;20201;-75
2023/08/12 06:09:03;;;;;;;12.65;9.10;;;;;;;21.67;58.68;93460.59;5072594;28;20865;-75
2023/08/12 06:11:28;;;;;;;10.25;9.57;;;;;;;22.38;57.50;93464.63;5070826;28;20178;-75
2023/08/12 06:13:54;;;;;;;9.93;9.00;;;;;;;23.78;52.73;93458.31;5073068;28;20179;-74
2023/08/12 06:16:19;;;;;;;9.00;8.50;;;;;;;24.44;51.79;93461.25;5072498;28;20199;-75
2023/08/12 06:18:44;;;;;;;9.80;9.18;;;;;;;26.03;45.72;93469.16;5072022;28;20234;-76
2023/08/12 06:21:10;;;;;;;9.73;8.77;;;;;;;30.32;37.61;93460.78;5072409;28;20181;-75
2023/08/12 06:23:35;;;;;;;8.50;7.70;;;;;;;29.91;37.01;93464.81;5092027;28;20236;-76
2023/08/12 06:26:01;;;;;;;8.70;8.00;;;;;;;31.73;33.38;93481.31;5086272;28;20174;-76
2023/08/12 06:28:26;;;;;;;8.48;7.88;;;;;;;25.45;45.35;93454.16;5074369;28;20303;-76
2023/08/12 06:30:51;;;;;;;9.10;8.40;;;;;;;23.21;50.76;93454.34;5065501;28;20952;-76
2023/08/12 06:33:17;;;;;;;9.38;8.43;;;;;;;21.88;55.61;93442.78;5087932;28;20235;-76
2023/08/12 06:35:42;;;;;;;9.65;8.77;;;;;;;20.85;59.14;93429.44;5092396;28;20183;-76
2023/08/12 06:38:09;;;;;;;9.80;8.73;;;;;;;20.66;60.66;93432.50;5105303;28;21125;-76
2023/08/12 06:40:35;;;;;;;9.65;8.90;;;;;;;20.81;60.94;93438.38;5100336;28;20205;-75
2023/08/12 06:43:01;;;;;;;9.70;8.98;;;;;;;20.05;62.61;93430.38;5106521;28;20243;-75
2023/08/12 06:45:26;;;;;;;9.90;9.30;;;;;;;20.24;61.52;93419.41;5102304;28;20192;-76
2023/08/12 06:47:51;;;;;;;9.02;8.52;;;;;;;20.54;60.85;93413.84;5081355;28;20235;-75
2023/08/12 06:50:17;;;;;;;9.55;8.95;;;;;;;20.83;60.98;93421.00;5071827;28;20273;-75
2023/08/12 06:52:42;;;;;;;10.02;9.43;;;;;;;20.80;61.36;93426.16;5071345;28;20298;-75
2023/08/12 06:55:08;;;;;;;9.90;9.30;;;;;;;20.30;63.43;93423.44;5070733;28;20179;-75
2023/08/12 06:57:33;;;;;;;9.95;9.35;;;;;;;19.89;65.23;93421.34;5081192;28;20227;-76
2023/08/12 06:59:58;;;;;;;10.18;9.57;;;;;;;20.16;62.74;93402.44;5091735;28;20271;-75
2023/08/12 07:02:24;;;;;;;10.23;9.50;;;;;;;20.67;61.30;93423.44;5091153;28;20245;-75
2023/08/12 07:04:49;;;;;;;10.63;9.55;;;;;;;20.36;63.56;93416.88;5091790;28;20264;-76
2023/08/12 07:07:15;;;;;;;10.25;9.60;;;;;;;20.12;63.82;93424.59;5091072;28;20217;-75
2023/08/12 07:09:40;;;;;;;10.00;9.40;;;;;;;20.30;61.76;93421.59;5084068;28;20181;-76
2023/08/12 07:12:06;;;;;;;10.07;9.35;;;;;;;20.36;61.84;93419.53;5084745;28;20230;-78
2023/08/12 07:14:31;;;;;;;10.07;9.40;;;;;;;20.54;59.78;93434.28;5070045;28;20207;-76
2023/08/12 07:16:56;;;;;;;10.07;9.40;;;;;;;20.52;60.98;93423.22;5069884;28;20249;-75
2023/08/12 07:19:22;;;;;;;9.27;8.63;;;;;;;20.88;59.64;93422.69;5071391;28;20213;-76
2023/08/12 07:21:48;;;;;;;9.38;8.68;;;;;;;21.22;58.19;93433.13;5069633;28;20240;-75
2023/08/12 07:24:13;;;;;;;9.93;9.27;;;;;;;20.99;59.26;93430.00;5070441;28;20216;-76
2023/08/12 07:26:38;;;;;;;10.07;9.40;;;;;;;20.11;62.23;93423.78;5070646;28;20229;-78
2023/08/12 07:29:04;;;;;;;9.50;8.93;;;;;;;20.14;63.05;93415.25;5068252;28;20191;-76
2023/08/12 07:31:29;;;;;;;10.18;9.48;;;;;;;20.98;60.68;93428.44;5067473;28;20193;-75
2023/08/12 07:33:55;;;;;;;9.02;8.60;;;;;;;21.21;59.26;93416.44;5070973;28;20187;-75
2023/08/12 07:36:20;;;;;;;10.48;9.75;;;;;;;21.34;60.92;93430.56;5070833;28;20181;-75
2023/08/12 07:38:46;;;;;;;10.13;9.32;;;;;;;21.02;61.57;93428.56;5101661;28;20225;-75
2023/08/12 07:41:11;;;;;;;10.05;9.45;;;;;;;21.20;60.63;93422.81;5090560;28;20186;-76
2023/08/12 07:43:37;;;;;;;10.00;9.23;;;;;;;20.91;61.34;93424.69;5102653;28;20223;-76
2023/08/12 07:46:02;;;;;;;10.70;9.75;;;;;;;20.95;59.86;93417.66;5090727;28;20186;-76
2023/08/12 07:48:27;;;;;;;9.60;8.98;;;;;;;21.17;61.39;93420.81;5071415;28;20222;-75
2023/08/12 07:50:59;;;;;;;9.88;9.05;;;;;;;21.66;57.14;93416.50;5070750;28;20187;-75
2023/08/12 07:53:25;;;;;;;10.35;9.70;;;;;;;21.72;56.64;93416.00;5087614;28;20242;-75
2023/08/12 07:55:51;;;;;;;10.90;10.00;;;;;;;21.67;55.88;93418.84;5089718;28;20227;-75
2023/08/12 07:58:16;;;;;;;10.23;9.63;;;;;;;21.36;57.76;93412.38;5090325;28;20215;-75
2023/08/12 08:00:41;;;;;;;10.68;9.98;;;;;;;21.38;57.38;93421.59;5090236;28;20198;-76
2023/08/12 08:03:07;;;;;;;10.00;9.40;;;;;;;21.41;56.48;93409.53;5090297;28;20212;-75
2023/08/12 08:05:32;;;;;;;10.10;9.50;;;;;;;21.29;57.24;93412.13;5090639;28;20768;-76
2023/08/12 08:07:57;;;;;;;9.48;8.93;;;;;;;21.24;58.50;93399.84;5090229;28;20227;-76
2023/08/12 08:10:23;;;;;;;10.23;9.63;;;;;;;21.52;58.02;93403.50;5089939;28;20218;-76
2023/08/12 08:12:48;;;;;;;10.50;9.80;;;;;;;21.66;57.28;93411.19;5077974;28;20232;-76
2023/08/12 08:15:14;;;;;;;10.90;10.05;;;;;;;22.07;54.77;93413.81;5070002;28;20192;-76
2023/08/12 08:17:39;;;;;;;10.68;9.80;;;;;;;21.60;58.48;93400.00;5067784;28;20242;-76
2023/08/12 08:20:05;;;;;;;10.10;9.50;;;;;;;21.46;57.40;93406.69;5070246;28;20238;-78
2023/08/12 08:22:31;;;;;;;10.90;10.20;;;;;;;21.27;60.17;93409.03;5069763;28;20232;-76
2023/08/12 08:24:57;;;;;;;10.45;9.70;;;;;;;21.63;59.08;93411.84;5068260;28;20195;-77
2023/08/12 08:27:22;;;;;;;9.90;9.30;;;;;;;22.14;56.78;93408.69;5069371;28;20228;-75
2023/08/12 08:29:47;;;;;;;10.35;9.70;;;;;;;22.55;52.04;93410.44;5069808;28;20178;-76
2023/08/12 08:32:13;;;;;;;10.55;9.75;;;;;;;22.66;52.85;93417.66;5083509;28;20229;-75
2023/08/12 08:34:38;;;;;;;10.52;9.82;;;;;;;22.04;53.55;93417.09;5096002;28;20254;-75
2023/08/12 08:37:03;;;;;;;9.80;9.20;;;;;;;21.82;53.22;93414.84;5095678;28;20219;-77
2023/08/12 08:39:29;;;;;;;10.75;9.80;;;;;;;21.77;53.55;93404.41;5069326;28;20214;-77
2023/08/12 08:41:56;;;;;;;10.20;9.48;;;;;;;22.12;52.38;93400.25;5069369;28;20276;-76
2023/08/12 08:44:23;;;;;;;10.07;9.38;;;;;;;22.51;51.85;93410.31;5068614;28;20191;-76
2023/08/12 08:46:52;;;;;;;9.70;8.88;;;;;;;22.55;51.15;93405.13;5065603;28;20229;-75
2023/08/12 08:49:18;;;;;;;10.23;9.52;;;;;;;22.77;50.39;93412.66;5093886;28;20195;-76
2023/08/12 08:51:46;;;;;;;9.45;8.75;;;;;;;22.77;49.62;93408.09;5098188;28;20236;-75
2023/08/12 08:54:12;;;;;;;9.70;9.10;;;;;;;22.69;50.83;93385.06;5078022;28;20205;-75
2023/08/12 08:56:38;;;;;;;10.15;9.45;;;;;;;22.86;51.55;93395.47;5086718;28;20282;-75
2023/08/12 08:59:04;;;;;;;10.68;9.98;;;;;;;22.66;50.74;93363.63;5069153;28;20917;-76
2023/08/12 09:01:30;;;;;;;8.77;8.27;;;;;;;22.96;49.57;93389.66;5070332;28;20179;-76
2023/08/12 09:03:57;;;;;;;9.95;9.15;;;;;;;22.78;49.46;93403.56;5089218;28;20187;-75
2023/08/12 09:06:24;;;;;;;10.10;9.50;;;;;;;22.19;51.41;93364.03;5089074;28;20188;-75
2023/08/12 09:08:52;;;;;;;10.60;9.93;;;;;;;21.92;52.00;93398.44;5086667;28;20193;-76
2023/08/12 09:11:18;;;;;;;9.77;9.15;;;;;;;22.47;52.34;93392.66;5079210;28;20199;-75
2023/08/12 09:13:44;;;;;;;11.80;9.70;;;;;;;22.73;53.46;93364.63;5088904;28;20226;-78
2023/08/12 09:16:10;;;;;;;9.45;8.93;;;;;;;22.79;52.32;93387.25;5089254;28;20187;-76
2023/08/12 09:18:37;;;;;;;10.20;9.43;;;;;;;22.96;49.81;93384.34;5088618;28;20215;-75
2023/08/12 09:21:03;;;;;;;9.98;9.02;;;;;;;23.10;50.63;93387.41;5089230;28;20186;-77
2023/08/12 09:23:34;;;;;;;9.13;8.63;;;;;;;22.73;49.33;93385.13;5092332;28;20290;-76
2023/08/12 09:26:01;;;;;;;9.52;8.93;;;;;;;22.72;50.15;93381.72;5089174;28;20213;-76
2023/08/12 09:28:26;;;;;;;9.70;9.00;;;;;;;22.85;52.46;93377.16;5087685;28;20238;-76
2023/08/12 09:30:54;;;;;;;10.07;9.20;;;;;;;23.13;50.53;93370.75;5089245;28;20182;-79
2023/08/12 09:33:26;;;;;;;9.88;9.25;;;;;;;23.38;47.77;93368.81;5088815;28;20287;-76
2023/08/12 09:35:52;;;;;;;9.70;9.20;;;;;;;23.39;49.35;93370.38;5089126;28;20189;-75
2023/08/12 09:38:17;;;;;;;9.90;9.00;;;;;;;23.55;48.60;93369.31;5086856;28;20251;-76
2023/08/12 09:40:44;;;;;;;10.15;9.55;;;;;;;23.64;49.48;93369.94;5100238;28;20696;-75
2023/08/12 09:43:11;;;;;;;9.23;8.63;;;;;;;23.68;49.99;93360.16;5089725;28;20241;-76
2023/08/12 09:45:37;;;;;;;9.98;9.27;;;;;;;23.43;46.35;93358.72;5089101;28;20470;-75
2023/08/12 09:48:02;;;;;;;9.43;8.93;;;;;;;23.20;47.41;93349.66;5088379;28;20279;-76
2023/08/12 09:50:28;;;;;;;9.25;8.68;;;;;;;22.75;47.86;93357.09;5088821;28;20208;-76
2023/08/12 09:52:55;;;;;;;9.63;9.00;;;;;;;23.11;47.33;93359.69;5093590;28;20231;-75
2023/08/12 09:55:23;;;;;;;9.55;8.95;;;;;;;22.94;48.52;93353.84;5089045;28;20275;-76
2023/08/12 09:57:52;;;;;;;9.13;8.63;;;;;;;23.41;48.93;93347.59;5088340;28;20210;-76
2023/08/12 10:00:18;;;;;;;9.45;8.75;;;;;;;23.43;48.54;93348.03;5088759;28;20220;-76
2023/08/12 10:02:48;;;;;;;9.95;9.35;;;;;;;24.00;47.69;93346.91;5088306;28;20260;-75
2023/08/12 10:05:32;;;;;;;9.77;9.07;;;;;;;23.89;47.66;93340.47;5088604;28;20237;-75
2023/08/12 10:08:00;;;;;;;9.80;8.90;;;;;;;23.87;46.62;93350.72;5085056;28;20223;-75
2023/08/12 10:10:25;;;;;;;9.43;8.82;;;;;;;23.68;45.79;93312.16;5076371;28;20217;-75
2023/08/12 10:12:51;;;;;;;8.80;8.35;;;;;;;23.99;45.94;93343.44;5077861;28;20247;-77
2023/08/12 10:15:17;;;;;;;9.80;9.20;;;;;;;23.91;46.00;93343.59;5088564;28;20191;-75
2023/08/12 10:17:43;;;;;;;9.85;9.15;;;;;;;23.65;45.96;93347.50;5096465;28;20233;-76
2023/08/12 10:20:13;;;;;;;9.25;8.75;;;;;;;23.83;46.53;93337.28;5092297;28;20213;-75
2023/08/12 10:22:39;;;;;;;9.35;8.75;;;;;;;23.79;45.87;93336.41;5087205;28;20219;-76
2023/08/12 10:25:07;;;;;;;9.45;8.68;;;;;;;23.87;47.11;93335.50;5088715;28;20184;-76
2023/08/12 10:27:33;;;;;;;9.02;8.27;;;;;;;23.77;46.13;93337.91;5088335;28;20229;-77
2023/08/12 10:29:58;;;;;;;9.70;8.75;;;;;;;23.83;45.04;93326.59;5080001;28;20233;-75
2023/08/12 10:32:27;;;;;;;10.10;9.27;;;;;;;23.84;45.06;93333.50;5088325;28;21057;-76
2023/08/12 10:34:56;;;;;;;9.65;9.05;;;;;;;23.84;45.44;93314.84;5075732;28;20192;-76
2023/08/12 10:37:24;;;;;;;9.70;8.90;;;;;;;24.08;47.32;93332.63;5087369;28;20800;-76
2023/08/12 10:39:52;;;;;;;10.88;9.55;;;;;;;24.24;45.59;93326.16;5088132;28;20220;-75
2023/08/12 10:42:41;;;;;;;9.57;9.02;;;;;;;24.20;45.51;93321.84;5087342;28;20295;-76
2023/08/12 10:45:06;;;;;;;9.50;9.00;;;;;;;24.21;44.55;93323.38;5088450;28;20195;-76
2023/08/12 10:47:34;;;;;;;9.55;8.85;;;;;;;24.23;45.82;93323.81;5086700;28;20247;-75
2023/08/12 10:49:59;;;;;;;9.73;9.02;;;;;;;24.50;43.10;93307.69;5089394;28;20184;-75
2023/08/12 10:52:29;;;;;;;9.23;8.73;;;;;;;24.34;44.43;93304.28;5089853;28;20247;-75
2023/08/12 10:54:55;;;;;;;9.57;9.05;;;;;;;23.71;44.58;93308.00;5083232;28;20210;-76
2023/08/12 10:57:38;;;;;;;10.25;9.55;;;;;;;24.06;44.85;93305.50;5085738;28;20232;-76
2023/08/12 11:00:04;;;;;;;10.43;9.73;;;;;;;24.49;44.42;93305.38;5100228;28;20261;-75
2023/08/12 11:02:33;;;;;;;9.27;8.70;;;;;;;24.67;42.59;93306.59;5104162;28;20224;-75
2023/08/12 11:05:12;;;;;;;9.52;8.80;;;;;;;24.69;43.10;93301.66;5091403;28;20183;-75
2023/08/12 11:07:49;;;;;;;8.98;8.48;;;;;;;24.62;40.30;93298.81;5095063;28;20246;-75
2023/08/12 11:10:15;;;;;;;9.30;8.70;;;;;;;24.46;42.42;93295.38;5095576;28;20233;-76
2023/08/12 11:13:08;;;;;;;9.55;8.27;;;;;;;24.57;43.35;93297.19;5081454;28;20232;-76
2023/08/12 11:15:46;;;;;;;8.57;8.13;;;;;;;24.90;40.63;93294.09;5092048;28;20221;-76
2023/08/12 11:18:20;;;;;;;8.20;7.80;;;;;;;25.00;38.10;93290.84;5111172;28;20251;-75
2023/08/12 11:20:48;;;;;;;8.82;8.13;;;;;;;24.98;39.29;93290.47;5103450;28;20199;-76